Tiempo atmosférico en la estación meteorológica de Medina De Pomar, Burgos (580 m.)



Fecha
DESCASC
Temp. máxima en grados centígrados (hora)
DESCASC
Temp. mínima en grados centígrados (hora)
DESCASC
Temp. media en grados centígrados
DESCASC
Racha de viento máxima en m/sg (hora)
DESCASC
Velocidad máxima media en intervalos de 10 minutos(hora)
DESCASC
Precipitaciones diarias en mm
DESCASC
Precipitaciones de 00:00 a 06:00 en mm
DESCASC
Precipitaciones de 06:00 a 12:00 en mm
DESCASC
Precipitaciones de 12:00 a 18:00 en mm
DESCASC
Precipitaciones de 18:00 a 24:00 en mm
DESCASC
16-01-2020 16.4 (14:50) 9.4 (01:30) 12.9 20.28 (15:20) 7.5 (23:59) 0 0 0 0 0
15-01-2020 13.1 (14:50) 9 (20:20) 11.1 17.5 (06:40) 6.67 (06:30) 0 0 0 0 0
14-01-2020 12.7 (16:20) 3.6 (00:50) 8.1 15.83 (16:50) 6.11 (18:40) 0 0 0 0 0
13-01-2020 10.5 (15:30) -2.6 (09:40) 4 11.67 (20:40) 6.11 (20:20) 0 0 0 0 0
12-01-2020 1.8 (16:20) -2.4 (-00:0) -0.3 5 (11:00) 1.67 (13:40) 0 0 0 0 0
11-01-2020 7.7 (15:40) -1.5 (-00:0) 3.1 5.83 (16:10) 3.61 (16:10) 0 0 0 0 0
10-01-2020 9.2 (11:30) 2 (00:00) 5.6 8.61 (01:40) 3.06 (06:20) 1 0.4 0.6 0 0
09-01-2020 14.7 (14:40) -0.6 (-00:0) 7 11.67 (15:00) 4.44 (15:00) 1.2 0 0 0 1.2
08-01-2020 14.9 (16:30) -2.1 (-00:0) 6.4 2.78 (18:00) 1.67 (17:40) 0 0 0 0 0
07-01-2020 11 (16:30) -3.1 (-00:0) 4 3.61 (01:10) 1.94 (16:40) 0 0 0 0 0
06-01-2020 11.1 (16:00) -5.7 (-00:0) 2.7 3.33 (19:50) 1.67 (19:50) 0 0 0 0 0
05-01-2020 14.2 (16:30) -2.1 (-00:0) 6 4.17 (18:10) 2.22 (17:20) 0 0 0 0 0
04-01-2020 9.7 (16:20) 0.9 (00:00) 5.3 6.94 (14:40) 3.61 (16:30) 0 0 0 0 0
03-01-2020 6.7 (16:00) -2.2 (-00:0) 2.2 3.33 (09:00) 1.67 (14:00) 0 0 0 0 0
02-01-2020 3.6 (16:40) -4.8 (-00:0) -0.6 3.33 (22:40) 1.67 (17:40) 0 0 0 0 0
01-01-2020 -0.1 (15:40) -4.4 (-00:0) -2.3 3.06 (11:20) 1.11 (09:00) 0 0 0 0 0
31-12-2019 0.5 (16:00) -3.7 (-00:0) -1.6 3.61 (09:20) 1.39 (13:10) 0 0 0 0 0
30-12-2019 7.1 (16:20) -4.2 (-00:0) 1.5 3.33 (14:10) 1.94 (14:00) 0 0 0 0 0
29-12-2019 2 (16:40) -3.5 (-00:0) -0.8 4.17 (16:50) 1.11 (06:00) 0 0 0 0 0
28-12-2019 6.2 (16:20) -2.6 (-00:0) 1.8 4.44 (09:00) 1.67 (04:40) 0 0 0 0 0
27-12-2019 2.1 (15:10) -1.8 (-00:0) 0.1 4.44 (04:20) 1.67 (09:50) 0 0 0 0 0
26-12-2019 13.7 (15:50) 0.5 (00:00) 7.1 5.83 (01:30) 3.61 (01:30) 0 0 0 0 0
25-12-2019 14.8 (15:20) 3.9 (00:00) 9.4 5 (19:10) 2.5 (15:30) 0 0 0 0 0
24-12-2019 15.4 (15:50) 3.3 (00:00) 9.3 6.11 (15:50) 2.5 (14:20) 0 0 0 0 0
23-12-2019 12.9 (15:40) 1 (00:00) 6.9 9.44 (13:40) 4.44 (13:40) 0 0 0 0 0
22-12-2019 14.9 (14:40) 4.3 (00:00) 9.6 20.28 (01:20) 9.44 (01:20) 0.4 0.2 0 0.2 0
21-12-2019 17.6 (12:40) 4.1 (00:00) 10.9 24.17 (13:00) 9.44 (21:30) 1 0 0 0.8 0.2

Gráficas

Temp. máximas Temp. mínimas Temp. medias Precipitaciones Rachas de viento máximas Velocidades máximas media en intervalos de 10 minutos

Datos horarios

Fecha y hora oficial Temperatura (ºC) Velocidad del viento (km/h) Dirección del viento Racha (km/h) Dirección de racha Precipitación (mm) Presión (hPa) Tendencia (hPa) Humedad (%)
2020-01-19 23:00:00 3.2 17 Nordeste 40 Nordeste 0 966.1 1.3 61
2020-01-19 22:00:00 3.6 16 Nordeste 51 Nordeste 0 965.8 1.3 60
2020-01-19 21:00:00 3.9 17 Nordeste 39 Nordeste 0 965.4 1.1 65
2020-01-19 20:00:00 3.9 17 Nordeste 46 Nordeste 0 964.8 0.6 64
2020-01-19 19:00:00 3.7 14 Norte 46 Norte 0 964.5 0.8 61
2020-01-19 18:00:00 3.9 19 Norte 46 Norte 0 964.3 0.9 60
2020-01-19 17:00:00 4.8 18 Norte 49 Norte 0 964.2 0.5 58
2020-01-19 16:00:00 5.4 21 Norte 57 Nordeste 0 963.7 -0.2 55
2020-01-19 15:00:00 5.8 20 Norte 59 Norte 0 963.4 -0.4 58
2020-01-19 14:00:00 6 20 Norte 41 Norte 0 963.7 0.9 57
2020-01-19 13:00:00 6.2 11 Norte 33 Nordeste 0 963.9 2.4 63
2020-01-19 12:00:00 6.2 12 Norte 35 Norte 0 963.8 3.8 63
2020-01-19 11:00:00 6 14 Norte 48 Norte 0 962.8 3.9 69
2020-01-19 10:00:00 4.9 17 Norte 41 Norte 0 961.5 3.6 76
2020-01-19 09:00:00 4.4 17 Norte 46 Nordeste 0.2 960 3.5 79
2020-01-19 08:00:00 4.1 17 Nordeste 41 Norte 2 958.9 3.4 86
2020-01-19 07:00:00 4.3 13 Norte 42 Norte 1.2 957.9 3.1 87
2020-01-19 06:00:00 4.7 18 Norte 47 Norte 1 956.5 2.2 85
2020-01-19 05:00:00 5.1 16 Norte 37 Norte 0.6 955.5 1.4 87
2020-01-19 04:00:00 4.5 4 Oeste 15 Noroeste 0.4 954.8 0.8 93
2020-01-19 03:00:00 4.1 3 Norte 6 Nordeste 0.2 954.3 0.7 92
2020-01-19 02:00:00 3.9 2 Noroeste 6 Este 0 954.1 0.9 92
2020-01-19 01:00:00 3.6 3 Este 9 Sudeste 0 954 1 91
2020-01-19 00:00:00 3.7 6 Sudeste 13 Sudeste 0.2 953.6 0.9 91
2020-01-18 23:00:00 4 6 Sudeste 10 Sudeste 0.4 953.2 1.1 90
2020-01-18 22:00:00 4 7 Sur 18 Sudeste 0.2 953 1.6 89
2020-01-18 21:00:00 4.2 10 Sudeste 21 Sudeste 0 952.7 1.3 87
2020-01-18 20:00:00 5.6 10 Sudeste 16 Sudeste 0.2 952.1 2 86
2020-01-18 19:00:00 6.2 3 Oeste 32 Norte 1 951.4 0.5 81
2020-01-18 18:00:00 6.8 6 Noroeste 29 Noroeste 0.6 951.4 0.7 86
2020-01-18 17:00:00 8 3 Sur 30 Sudeste 1.4 950.1 -2.4 90
2020-01-18 16:00:00 8.1 7 Norte 20 Sur 1.4 950.9 -2.9 87
2020-01-18 15:00:00 9.7 5 Sudeste 22 Sudoeste 0 950.7 -4.9 70
2020-01-18 14:00:00 9.6 7 Sur 44 Sur 0 952.5 -4.1 68
2020-01-18 13:00:00 9.8 16 Sudoeste 47 Este 0 953.8 -3.5 62
2020-01-18 12:00:00 9.4 18 Sur 39 Sur 0 955.6 -2.6 60
2020-01-18 11:00:00 7.9 9 Sur 26 Sudeste 0 956.6 -1.9 63
2020-01-18 10:00:00 7.2 9 Sur 30 Sur 0 957.3 -1.9 67
2020-01-18 09:00:00 3.5 9 Sur 20 Sur 0 958.2 -1.7 86
2020-01-18 08:00:00 2 3 Norte 10 Norte 0 958.5 -2.2 88
2020-01-18 07:00:00 2.4 3 Oeste 7 Norte 0 959.2 -2.1 88
2020-01-18 06:00:00 2.2 3 Norte 7 Sur 0 959.9 -1.6 89
2020-01-18 05:00:00 2.2 3 Este 8 Sudeste 0 960.7 -0.8 88
2020-01-18 04:00:00 2 3 Noroeste 7 Norte 0 961.3 -1.4 88
2020-01-18 03:00:00 1.6 2 Oeste 8 Nordeste 0 961.5 -1.2 89
2020-01-18 02:00:00 1.2 4 Nordeste 7 Nordeste 0 961.5 -1.8 88
2020-01-18 01:00:00 1.3 3 Este 6 Sudoeste 0 962.7 -1.1 88
2020-01-18 00:00:00 1.6 2 Norte 4 Norte 0 962.7 -0.9 87
2020-01-17 23:00:00 2.2 0 Calma 4 Sur 0 963.3 -0.1 85
2020-01-17 22:00:00 3.3 3 Sudoeste 6 Sur 0 963.8 0.6 81
2020-01-17 21:00:00 4.8 0 Calma 5 Sudoeste 0 963.6 1.1 77
2020-01-17 20:00:00 6.6 2 Norte 9 Oeste 0 963.4 1.5 69
2020-01-17 19:00:00 7.1 3 Oeste 14 Norte 0 963.2 2 66
2020-01-17 18:00:00 7.9 5 Noroeste 14 Noroeste 0 962.5 1.7 61
2020-01-17 17:00:00 9.4 4 Noroeste 15 Oeste 0 961.9 1.1 57
2020-01-17 16:00:00 9.8 6 Norte 15 Noroeste 0 961.2 0.1 56
2020-01-17 15:00:00 9.5 6 Noroeste 20 Noroeste 0 960.8 -0.1 61
2020-01-17 14:00:00 9.9 9 Noroeste 19 Noroeste 0 960.8 0.7 56
2020-01-17 13:00:00 9.2 9 Noroeste 19 Noroeste 0 961.1 2.1 63
2020-01-17 12:00:00 8.1 6 Noroeste 19 Noroeste 0 960.9 3 67
2020-01-17 11:00:00 8.6 6 Noroeste 18 Noroeste 0 960.1 3.1 67
2020-01-17 10:00:00 7.5 7 Noroeste 21 Oeste 0 959 2.8 69
2020-01-17 09:00:00 5.8 3 Norte 11 Nordeste 0 957.9 2.3 80
2020-01-17 08:00:00 7.2 2 Sudeste 18 Noroeste 0 957 1.5 76
2020-01-17 07:00:00 7.9 9 Sudoeste 23 Oeste 0 956.2 0.4 75
2020-01-17 06:00:00 8.3 3 Sudoeste 21 Oeste 0.4 955.6 0.1 80
2020-01-17 05:00:00 9 10 Sudoeste 31 Sudoeste 0 955.5 0.5 74
2020-01-17 04:00:00 9.8 9 Sudoeste 27 Sudoeste 0 955.8 1.7 67
2020-01-17 03:00:00 9.9 7 Sudoeste 22 Sudoeste 0 955.5 1.5 65
2020-01-17 02:00:00 10 14 Oeste 49 Sudoeste 0 955 0.6 64
2020-01-17 01:00:00 10.3 23 Sudoeste 62 Sudoeste 0 954.1 -0.4 62
2020-01-17 00:00:00 10.2 27 Sudoeste 64 Sur 0 954 -0.2 63
2020-01-16 23:00:00 10.2 15 Sudoeste 57 Sudoeste 0 954.4 1 61
2020-01-16 22:00:00 11.6 20 Sudoeste 51 Sur 0 954.5 2.1 47
2020-01-16 21:00:00 11.5 18 Sudoeste 54 Sudoeste 0 954.2 1.5 47
2020-01-16 20:00:00 12.3 17 Sudoeste 66 Oeste 0 953.4 0.8 42
2020-01-16 19:00:00 13.1 9 Sur 55 Oeste 0 952.4 -0.4 33
2020-01-16 18:00:00 13.5 12 Sur 50 Oeste 0 952.7 -0.2 37
2020-01-16 17:00:00 14.8 15 Sudoeste 49 Sudoeste 0 952.6 -0.9 37
2020-01-16 16:00:00 15 17 Sudoeste 73 Sudoeste 0 952.8 -2 37
2020-01-16 15:00:00 16.4 20 Sudoeste 53 Sur 0 952.9 -2.6 39
2020-01-16 14:00:00 15.1 13 Sudoeste 48 Sur 0 953.5 -2.2 51
2020-01-16 13:00:00 13.3 24 Sudoeste 58 Sur 0 954.8 -0.5 60
2020-01-16 12:00:00 12.8 17 Sur 49 Sudoeste 0 955.5 0.2 61
2020-01-16 11:00:00 12.3 16 Sur 40 Sur 0 955.7 0.2 63
2020-01-16 10:00:00 11.8 15 Sur 45 Sudoeste 0 955.3 0.7 65
2020-01-16 09:00:00 11.2 14 Sur 28 Sur 0 955.3 0.7 66
2020-01-16 08:00:00 11.5 10 Sudoeste 49 Sudoeste 0 955.5 0.4 65
2020-01-16 07:00:00 11.7 16 Sur 49 Sur 0 954.6 -0.9 62
2020-01-16 06:00:00 12 16 Sur 42 Sudoeste 0 954.6 -1 64
2020-01-16 05:00:00 12.1 12 Sur 40 Sudoeste 0 955.1 -0.5 66
2020-01-16 04:00:00 11.8 13 Sudoeste 40 Sudoeste 0 955.5 -0.5 69
2020-01-16 03:00:00 11.5 10 Sur 25 Sur 0 955.6 -0.5 70
2020-01-16 02:00:00 10.4 8 Sur 19 Sur 0 955.6 -0.6 75
2020-01-16 01:00:00 10.8 10 Sudoeste 28 Sudoeste 0 956 -0.1 71
2020-01-16 00:00:00 10.6 9 Sur 31 Sudeste 0 956.1 0.2 69
2020-01-15 23:00:00 10.9 13 Sudoeste 30 Sudoeste 0 956.2 0.3 67
2020-01-15 22:00:00 10.6 12 Sudoeste 33 Sudoeste 0 956.1 0.7 67
2020-01-15 21:00:00 10.5 12 Sudoeste 37 Sur 0 955.9 1 66
2020-01-15 20:00:00 9.7 4 Sudoeste 28 Sudoeste 0 955.9 1.5 69
2020-01-15 19:00:00 10.5 10 Sudoeste 26 Sur 0 955.4 1.5 65
2020-01-15 18:00:00 10.8 5 Sudoeste 28 Sudoeste 0 954.9 1.8 65
2020-01-15 17:00:00 12.3 9 Sur 29 Sudoeste 0 954.4 1.4 59
2020-01-15 16:00:00 11.8 12 Sudoeste 34 Sudoeste 0 953.9 1 61
2020-01-15 15:00:00 12.5 15 Sudoeste 40 Oeste 0 953.1 0.1 57
2020-01-15 14:00:00 13 15 Sudoeste 36 Sudoeste 0 953 0.2 56
2020-01-15 13:00:00 11 16 Sudoeste 50 Sudeste 0 952.9 1 63
2020-01-15 12:00:00 10.1 15 Sudoeste 42 Sudoeste 0 953 1.9 67
2020-01-15 11:00:00 10.2 9 Sur 29 Sudoeste 0 952.8 2.6 63
2020-01-15 10:00:00 10 13 Sudoeste 39 Sudoeste 0 951.9 3 62
2020-01-15 09:00:00 9.5 18 Sudoeste 47 Sudoeste 0 951.1 1.7 61
2020-01-15 08:00:00 9.3 15 Sudoeste 52 Sur 0 950.2 0.6 62
2020-01-15 07:00:00 9.6 20 Sudoeste 63 Sur 0 948.9 -0.7 63
2020-01-15 06:00:00 10 18 Sudoeste 50 Sudoeste 0 949.4 -0.4 63
2020-01-15 05:00:00 9.8 19 Sudoeste 60 Sudoeste 0 949.6 0.3 64
2020-01-15 04:00:00 9.7 15 Sudoeste 46 Sudoeste 0 949.6 0.1 66
2020-01-15 03:00:00 9.8 19 Sudoeste 50 Oeste 0 949.8 0.1 68
2020-01-15 02:00:00 9.4 15 Sudoeste 46 Sudoeste 0 949.3 -0.6 69
2020-01-15 01:00:00 9.1 19 Sudoeste 52 Sudoeste 0 949.5 -0.8 69
2020-01-15 00:00:00 9.2 13 Sudoeste 43 Sudoeste 0 949.7 -0.2 67
2020-01-14 23:00:00 9.1 17 Sur 35 Sur 0 949.9 0.1 64
2020-01-14 22:00:00 9.4 10 Sur 49 Sudoeste 0 950.3 0.4 62
2020-01-14 21:00:00 10 21 Sur 52 Sur 0 949.9 0.3 58
2020-01-14 20:00:00 10.2 18 Sur 43 Sur 0 949.8 0.1 53
2020-01-14 19:00:00 9.9 14 Sur 52 Sur 0 949.9 0.2 54
2020-01-14 18:00:00 10.4 19 Sur 42 Sur 0 949.6 -0.4 51
2020-01-14 17:00:00 11.3 16 Sur 57 Oeste 0 949.7 -1.5 50
2020-01-14 16:00:00 12.3 18 Sudoeste 43 Sudoeste 0 949.7 -1.8 47
2020-01-14 15:00:00 10.9 16 Sudoeste 41 Sudoeste 0 950 -2.1 54
2020-01-14 14:00:00 9.7 16 Sudoeste 52 Sudoeste 0 951.2 -1.2 56
2020-01-14 13:00:00 9 16 Sudoeste 39 Sudoeste 0 951.5 -0.6 60
2020-01-14 12:00:00 8.1 13 Sudoeste 35 Sur 0 952.1 0.3 66
2020-01-14 11:00:00 6.9 12 Sudoeste 41 Oeste 0 952.4 1 71
2020-01-14 10:00:00 6.5 8 Sur 32 Sudoeste 0 952.1 0.9 72
2020-01-14 09:00:00 6 9 Sudoeste 28 Oeste 0 951.8 0.7 74
2020-01-14 08:00:00 6.1 17 Sudoeste 38 Oeste 0 951.4 0.1 73
2020-01-14 07:00:00 6.1 16 Oeste 31 Oeste 0 951.2 -0.6 74
2020-01-14 06:00:00 6.1 15 Oeste 44 Oeste 0 951.1 -1.2 73
2020-01-14 05:00:00 6 8 Oeste 36 Sudoeste 0 951.3 -1 73
2020-01-14 04:00:00 6 15 Oeste 36 Sudoeste 0 951.8 -0.9 72
2020-01-14 03:00:00 5.7 15 Sudoeste 32 Sudoeste 0 952.3 -0.6 72
2020-01-14 02:00:00 5 7 Oeste 38 Oeste 0 952.3 -1 72
2020-01-14 01:00:00 4.1 12 Noroeste 23 Noroeste 0 952.7 -1.1 74
2020-01-14 00:00:00 4 8 Oeste 25 Oeste 0 952.9 -0.7 70
2020-01-13 23:00:00 3.9 12 Oeste 27 Noroeste 0 953.3 0.4 69
2020-01-13 22:00:00 3.7 10 Oeste 37 Sudoeste 0 953.8 1.2 70
2020-01-13 21:00:00 4.2 20 Oeste 42 Oeste 0 953.6 0.8 65
2020-01-13 20:00:00 4.6 19 Oeste 39 Oeste 0 952.9 0.2 57
2020-01-13 19:00:00 3.1 3 Sudoeste 27 Oeste 0 952.6 0 64
2020-01-13 18:00:00 5.3 17 Oeste 32 Oeste 0 952.8 -0.5 54
2020-01-13 17:00:00 7.4 12 Oeste 28 Oeste 0 952.7 -1.4 50
2020-01-13 16:00:00 8.7 12 Oeste 23 Oeste 0 952.6 -2.5 44
2020-01-13 15:00:00 8.9 8 Oeste 18 Sudeste 0 953.3 -3.4 40
2020-01-13 14:00:00 4.6 2 Sudoeste 12 Sudeste 0 954.1 -2.9 93
2020-01-13 13:00:00 1.5 6 Sur 10 Sudeste 0 955.1 -1.9 94
2020-01-13 12:00:00 -0.7 4 Nordeste 9 Sudeste 0 956.7 -0.2 94
2020-01-13 11:00:00 -2 4 Sudeste 7 Sudeste 0 957 -0.3 94
2020-01-13 10:00:00 -2.4 3 Sur 10 Sudeste 0 957 -0.3 94
2020-01-13 09:00:00 -2.4 3 Nordeste 8 Este 0 956.9 -0.7 94
2020-01-13 08:00:00 -2.5 2 Sudoeste 8 Sudeste 0 957.3 -1 94
2020-01-13 07:00:00 -2.3 2 Norte 6 Nordeste 0 957.3 -1.7 94
2020-01-13 06:00:00 -2.2 3 Sudoeste 5 Oeste 0 957.6 -1.8 95
2020-01-13 05:00:00 -2.1 0 Calma 7 Sur 0 958.3 -1.8 95
2020-01-13 04:00:00 -2 5 Sur 8 Sur 0 959 -1.8 95
2020-01-13 03:00:00 -1.9 4 Sur 8 Sudeste 0 959.4 -1.8 95
2020-01-13 02:00:00 -1.5 2 Sudeste 6 Este 0 960.1 -1.1 94
2020-01-13 01:00:00 -1.3 3 Este 8 Este 0 960.8 -0.8 94
2020-01-13 00:00:00 -0.8 2 Sudeste 8 Sudeste 0 961.2 -0.7 94
2020-01-12 23:00:00 -0.6 3 Oeste 6 Sudoeste 0 961.2 -1 94
2020-01-12 22:00:00 -0.2 2 Sudoeste 5 Sur 0 961.6 -0.7 94
2020-01-12 21:00:00 0.1 3 Este 6 Sudeste 0 961.9 -0.1 94
2020-01-12 20:00:00 0.4 2 Sur 7 Sudeste 0 962.2 0.1 93
2020-01-12 19:00:00 0.6 3 Sur 8 Sur 0 962.3 0.2 93
2020-01-12 18:00:00 1 4 Sudoeste 8 Sur 0 962 -0.4 92
2020-01-12 17:00:00 1.6 3 Sur 6 Norte 0 962.1 -1 90
2020-01-12 16:00:00 1.6 2 Sudoeste 6 Oeste 0 962.1 -2 90
2020-01-12 15:00:00 1 2 Sudoeste 8 Sur 0 962.4 -2.6 92
2020-01-12 14:00:00 0.8 5 Sudeste 10 Sur 0 963.1 -1.9 93
2020-01-12 13:00:00 0.2 3 Sur 10 Sudeste 0 964.1 -0.4 94
2020-01-12 12:00:00 -0.6 3 Sudeste 8 Sur 0 965 1.1 94
2020-01-12 11:00:00 -1 5 Sudeste 18 Sudeste 0 965 1.1 94
2020-01-12 10:00:00 -1.4 4 Sudeste 9 Sur 0 964.5 0.9 94
2020-01-12 09:00:00 -1.5 4 Sur 8 Sur 0 963.9 0.6 94
2020-01-12 08:00:00 -1.7 0 Calma 5 Este 0 963.9 0.4 94
2020-01-12 07:00:00 -2.3 4 Sudeste 11 Sudeste 0 963.6 0.1 94
2020-01-12 06:00:00 -2 5 Sudeste 9 Sudeste 0 963.3 0.1 94
2020-01-12 05:00:00 -1.9 0 Calma 5 Nordeste 0 963.5 0.4 94
2020-01-12 04:00:00 -1.9 0 Calma 6 Oeste 0 963.5 0.4 94
2020-01-12 03:00:00 -1.8 2 Norte 7 Sur 0 963.2 0.1 94
2020-01-12 02:00:00 -1.5 2 Oeste 6 Sur 0 963.1 0.1 94
2020-01-12 01:00:00 -1.1 4 Sudeste 6 Sur 0 963.1 0.2 94
2020-01-12 00:00:00 -0.6 2 Sudeste 4 Sudeste 0 963.1 0.1 94
2020-01-11 23:00:00 -0.6 2 Sudeste 6 Sur 0 963 0.1 93
2020-01-11 22:00:00 -0.6 3 Sudeste 8 Sudeste 0 962.9 0.4 93
2020-01-11 21:00:00 0.2 2 Este 6 Sudeste 0 963 0.9 92
2020-01-11 20:00:00 1.1 4 Sudeste 9 Este 0 962.9 1 92
2020-01-11 19:00:00 2.2 5 Sudeste 15 Sudeste 0 962.5 0.4 90
2020-01-11 18:00:00 3.8 9 Sudeste 17 Sudeste 0 962.1 -0.3 86
2020-01-11 17:00:00 5.5 8 Sudeste 21 Sur 0 961.9 -1.4 80
2020-01-11 16:00:00 7.2 11 Sudeste 18 Sudeste 0 962.1 -2.4 72
2020-01-11 15:00:00 7.1 10 Sudeste 18 Sudeste 0 962.4 -3 75
2020-01-11 14:00:00 4.4 0 Calma 6 Sudeste 0 963.3 -2.2 84
2020-01-11 13:00:00 2.4 4 Sudeste 12 Nordeste 0 964.5 -0.8 92
2020-01-11 12:00:00 1.1 5 Sudeste 10 Sudeste 0 965.4 0.2 94
2020-01-11 11:00:00 0.5 2 Sudoeste 8 Sur 0 965.5 0.5 94
2020-01-11 10:00:00 -0.3 3 Oeste 9 Oeste 0 965.3 0.2 94
2020-01-11 09:00:00 -0.4 4 Sudoeste 10 Sudoeste 0 965.2 0.1 94
2020-01-11 08:00:00 -0.7 2 Nordeste 5 Oeste 0 965 -0.2 93
2020-01-11 07:00:00 -0.2 0 Calma 4 Nordeste 0 965.1 -0.4 94
2020-01-11 06:00:00 -0.5 2 Norte 6 Noroeste 0 965.1 -0.1 94
2020-01-11 05:00:00 -0.5 0 Calma 5 Sudeste 0 965.2 0.1 94
2020-01-11 04:00:00 -1.4 5 Sur 9 Sur 0 965.5 0.1 93
2020-01-11 03:00:00 -0.8 2 Norte 7 Norte 0 965.2 -0.2 92
2020-01-11 02:00:00 -0.3 3 Nordeste 7 Nordeste 0 965.1 -0.2 92
2020-01-11 01:00:00 0.9 4 Norte 11 Sudoeste 0 965.4 0 91
2020-01-11 00:00:00 2.1 5 Norte 7 Norte 0 965.4 0.4 91
2020-01-10 23:00:00 3.3 2 Sudoeste 5 Este 0 965.3 0.4 90
2020-01-10 22:00:00 3.1 2 Nordeste 8 Sur 0 965.4 1.2 91
2020-01-10 21:00:00 2.5 3 Nordeste 9 Nordeste 0 965 1.1 89
2020-01-10 20:00:00 4.2 3 Norte 11 Noroeste 0 964.9 1.3 86
2020-01-10 19:00:00 5.5 4 Noroeste 15 Sudoeste 0 964.2 1.4 84
2020-01-10 18:00:00 6.5 2 Sudeste 18 Norte 0 963.9 1.6 79
2020-01-10 17:00:00 7 4 Nordeste 19 Norte 0 963.6 0.8 77
2020-01-10 16:00:00 7.5 7 Norte 24 Nordeste 0 962.8 0 74
2020-01-10 15:00:00 8.1 10 Norte 23 Noroeste 0 962.3 -0.4 68
2020-01-10 14:00:00 7.6 8 Norte 19 Norte 0 962.8 0.1 68
2020-01-10 13:00:00 8.4 4 Este 13 Oeste 0 962.8 0.9 68
2020-01-10 12:00:00 8.3 8 Oeste 16 Oeste 0 962.7 1.3 68
2020-01-10 11:00:00 8 7 Oeste 14 Oeste 0 962.7 1.4 67
2020-01-10 10:00:00 5.4 6 Oeste 15 Noroeste 0.2 961.9 1.1 82
2020-01-10 09:00:00 4.2 0 Calma 12 Oeste 0 961.4 1.5 85
2020-01-10 08:00:00 4.9 10 Oeste 22 Oeste 0.2 961.3 1.5 82
2020-01-10 07:00:00 4.9 6 Sudoeste 29 Oeste 0.2 960.8 1.2 79
2020-01-10 06:00:00 4.6 5 Sudoeste 17 Norte 0.2 959.9 0.7 83
2020-01-10 05:00:00 5.2 5 Noroeste 17 Noroeste 0.2 959.8 1 83
2020-01-10 04:00:00 5.4 6 Nordeste 25 Noroeste 0 959.6 1.1 78
2020-01-10 03:00:00 6.1 5 Oeste 31 Oeste 0 959.2 0.8 69
2020-01-10 02:00:00 6.5 9 Norte 31 Noroeste 0 958.8 0.6 66
2020-01-10 01:00:00 6.4 8 Noroeste 24 Norte 0 958.5 1.2 64
2020-01-10 00:00:00 5.4 3 Sudoeste 24 Oeste 0 958.4 2.1 74
2020-01-09 23:00:00 6.7 5 Noroeste 14 Noroeste 0 958.2 1.9 74
2020-01-09 22:00:00 6.9 3 Noroeste 8 Noroeste 0.2 957.3 1.1 92
2020-01-09 21:00:00 7.2 3 Sudoeste 13 Sudeste 0.2 956.3 0.6 89
2020-01-09 20:00:00 7.7 4 Este 9 Nordeste 0.8 956.3 0.6 86
2020-01-09 19:00:00 8.6 5 Nordeste 11 Este 0 956.2 2.2 80
2020-01-09 18:00:00 9.8 3 Sur 23 Oeste 0 955.7 1.7 74
2020-01-09 17:00:00 10.9 9 Sudoeste 26 Sudoeste 0 955.7 1.6 63
2020-01-09 16:00:00 12.6 13 Sudoeste 34 Sudoeste 0 954 -1.9 56
2020-01-09 15:00:00 13.8 16 Sudoeste 42 Oeste 0 954 -3.1 53
2020-01-09 14:00:00 13.1 9 Sudoeste 28 Sur 0 954.1 -3.8 56
2020-01-09 13:00:00 8.3 3 Noroeste 8 Noroeste 0 955.9 -1.8 77
2020-01-09 12:00:00 3.5 0 Calma 8 Norte 0 957.1 -1.1 94
2020-01-09 11:00:00 1.7 3 Este 10 Noroeste 0 957.9 0.1 94
2020-01-09 10:00:00 1.2 3 Norte 13 Sudeste 0 957.7 -0.6 94
2020-01-09 09:00:00 0.8 0 Calma 6 Noroeste 0 958.2 0.1 94
2020-01-09 08:00:00 0.2 3 Oeste 11 Sur 0 957.8 -0.8 94
2020-01-09 07:00:00 0.5 2 Oeste 7 Norte 0 958.3 -0.8 93
2020-01-09 06:00:00 0.1 2 Norte 6 Norte 0 958.1 -1.1 94
2020-01-09 05:00:00 -0.5 3 Nordeste 6 Nordeste 0 958.6 -1 93
2020-01-09 04:00:00 -0.2 3 Sudoeste 8 Nordeste 0 959.1 -0.9 93
2020-01-09 03:00:00 0.3 2 Norte 6 Nordeste 0 959.2 -1.4 93
2020-01-09 02:00:00 0.8 4 Nordeste 7 Nordeste 0 959.6 -1 93
2020-01-09 01:00:00 0.8 2 Este 5 Este 0 960 -0.5 92
2020-01-09 00:00:00 1.4 2 Sur 4 Sudoeste 0 960.6 0.3 91
2020-01-08 23:00:00 2.1 3 Nordeste 7 Nordeste 0 960.6 0 90
2020-01-08 22:00:00 2.6 2 Nordeste 6 Este 0 960.5 -0.1 88
2020-01-08 21:00:00 3.7 2 Noroeste 5 Este 0 960.3 -0.1 86
2020-01-08 20:00:00 5 2 Nordeste 5 Este 0 960.6 0.3 82
2020-01-08 19:00:00 7.1 2 Este 8 Sudeste 0 960.6 0.2 74
2020-01-08 18:00:00 10.6 5 Sudeste 10 Sudeste 0 960.4 -0.4 63
2020-01-08 17:00:00 13.7 2 Sudoeste 8 Sudeste 0 960.3 -1.3 54
2020-01-08 16:00:00 14.1 3 Sudeste 8 Sudeste 0 960.4 -2.1 51
2020-01-08 15:00:00 13 3 Sudeste 7 Sudeste 0 960.8 -2.9 50
2020-01-08 14:00:00 10.6 2 Oeste 8 Sudeste 0 961.6 -2.6 60
2020-01-08 13:00:00 8.7 2 Sudeste 6 Sur 0 962.5 -1.6 66
2020-01-08 12:00:00 6.5 3 Sudeste 6 Sudeste 0 963.7 -0.2 73
2020-01-08 11:00:00 2.8 0 Calma 4 Sudeste 0 964.2 0.5 92
2020-01-08 10:00:00 0 2 Nordeste 4 Nordeste 0 964.1 0.7 93
2020-01-08 09:00:00 -1.5 0 Calma 5 Sur 0 963.9 0.6 93
2020-01-08 08:00:00 -1.8 2 Sur 5 Norte 0 963.7 0.3 93
2020-01-08 07:00:00 -1.8 0 Calma 6 Sur 0 963.4 -0.4 93
2020-01-08 06:00:00 -1.4 3 Sur 5 Sur 0 963.3 -0.4 93
2020-01-08 05:00:00 -1.4 0 Calma 5 Nordeste 0 963.4 -0.2 93
2020-01-08 04:00:00 -1.1 0 Calma 5 Nordeste 0 963.8 -0.3 93
2020-01-08 03:00:00 -1.4 0 Calma 3 Este 0 963.7 -0.5 93
2020-01-08 02:00:00 -1.2 0 Calma 4 Nordeste 0 963.6 -0.5 92
2020-01-08 01:00:00 -0.9 0 Calma 4 Sudeste 0 964.1 0 92
2020-01-08 00:00:00 -0.5 0 Calma 3 Este 0 964.2 0.5 92
2020-01-07 23:00:00 -0.2 0 Calma 4 Sur 0 964.1 0.6 91
2020-01-07 22:00:00 0.5 0 Calma 6 Nordeste 0 964.1 1 90
2020-01-07 21:00:00 1.1 0 Calma 3 Este 0 963.7 0.6 87
2020-01-07 20:00:00 2.2 0 Calma 4 Norte 0 963.5 0.7 83
2020-01-07 19:00:00 4.1 0 Calma 4 Sur 0 963.1 0.2 80
2020-01-07 18:00:00 7.3 4 Sur 5 Sur 0 963.1 -0.2 69
2020-01-07 17:00:00 9.8 3 Sur 11 Sur 0 962.8 -0.9 61
2020-01-07 16:00:00 10.4 0 Calma 8 Sudoeste 0 962.9 -2.1 58
2020-01-07 15:00:00 9 3 Sudeste 9 Oeste 0 963.3 -2.6 63
2020-01-07 14:00:00 6.9 3 Sudeste 10 Sudeste 0 963.7 -2.3 69
2020-01-07 13:00:00 4.2 0 Calma 8 Oeste 0 965 -0.5 82
2020-01-07 12:00:00 0.4 4 Sudoeste 9 Sudoeste 0 965.9 0.8 92
2020-01-07 11:00:00 -1.2 3 Oeste 6 Oeste 0 966 1.2 93
2020-01-07 10:00:00 -2.3 0 Calma 9 Sur 0 965.5 0.7 94
2020-01-07 09:00:00 -3.1 0 Calma 4 Sudeste 0 965.1 0.4 94
2020-01-07 08:00:00 -2.9 0 Calma 3 Nordeste 0 964.8 0.1 94
2020-01-07 07:00:00 -2.8 0 Calma 5 Sudeste 0 964.8 -0.3 94
2020-01-07 06:00:00 -2.5 3 Sudeste 5 Sur 0 964.7 -0.2 93
2020-01-07 05:00:00 -2.3 3 Nordeste 5 Nordeste 0 964.7 0 93
2020-01-07 04:00:00 -2.9 0 Calma 4 Norte 0 965.1 0.6 92
2020-01-07 03:00:00 -3 0 Calma 3 Oeste 0 964.9 0.5 92
2020-01-07 02:00:00 -2.6 2 Sudeste 13 Este 0 964.7 0.6 91
2020-01-07 01:00:00 -2.1 4 Norte 12 Este 0 964.5 0.5 92
2020-01-07 00:00:00 -1.7 0 Calma 5 Nordeste 0 964.4 0.8 91
2020-01-06 23:00:00 -1 2 Sudeste 8 Nordeste 0 964.1 1.3 89
2020-01-06 22:00:00 -0.4 4 Este 7 Nordeste 0 964 1.5 88
2020-01-06 21:00:00 0.5 0 Calma 9 Norte 0 963.6 2.2 86
2020-01-06 20:00:00 1.9 5 Nordeste 12 Nordeste 0 962.8 2.4 84
2020-01-06 19:00:00 3 2 Noroeste 5 Norte 0 962.5 2.7 80
2020-01-06 18:00:00 6.3 0 Calma 4 Nordeste 0 961.4 2 71
2020-01-06 17:00:00 9.4 3 Sudoeste 5 Este 0 960.4 0.1 58
2020-01-06 16:00:00 10.9 2 Sudeste 7 Oeste 0 959.8 -1.4 50
2020-01-06 15:00:00 10.3 4 Sudeste 9 Sudeste 0 959.4 -2.5 52
2020-01-06 14:00:00 7.9 2 Este 9 Sudeste 0 960.3 -1.8 58
2020-01-06 13:00:00 5.9 3 Sur 6 Sur 0 961.2 -0.8 63
2020-01-06 12:00:00 3.4 2 Sur 9 Sudeste 0 961.9 0.7 71
2020-01-06 11:00:00 0.4 0 Calma 5 Este 0 962.1 1.2 81
2020-01-06 10:00:00 -3.6 0 Calma 5 Nordeste 0 962 1.7 92